Time;durP1;ratioP1;P1;durP2;ratioP2;P2;SDS_P1;SDS_P2;PMS_P1;PMS_P2;Temp;Humidity;BMP_temperature;BMP_pressure;BME280_temperature;BME280_humidity;BME280_pressure;Samples;Min_cycle;Max_cycle;Signal;HPM_P1;HPM_P2
2021/08/16 00:01:57;;;;;;;8.30;5.50;;;24.00;70.60;;;;;;4206349;28;20040;-63
2021/08/16 00:04:19;;;;;;;11.45;5.55;;;24.00;70.60;;;;;;4207916;28;20749;-62
2021/08/16 00:06:41;;;;;;;5.85;5.05;;;24.00;70.70;;;;;;4208054;28;20490;-63
2021/08/16 00:09:04;;;;;;;6.68;5.13;;;24.00;70.90;;;;;;4207643;28;20097;-63
2021/08/16 00:11:26;;;;;;;6.65;6.00;;;24.00;71.00;;;;;;4207367;28;20048;-61
2021/08/16 00:13:49;;;;;;;7.97;5.28;;;23.90;70.90;;;;;;4207929;28;20122;-62
2021/08/16 00:16:12;;;;;;;6.43;5.57;;;23.90;71.10;;;;;;4207460;28;20048;-62
2021/08/16 00:18:35;;;;;;;6.15;5.55;;;23.90;71.20;;;;;;4207979;28;20055;-63
2021/08/16 00:20:57;;;;;;;6.93;5.72;;;23.90;71.20;;;;;;4207746;28;20048;-64
2021/08/16 00:23:21;;;;;;;7.47;5.45;;;23.90;71.20;;;;;;4207929;28;20059;-62
2021/08/16 00:25:43;;;;;;;7.10;4.88;;;23.90;71.40;;;;;;4207893;28;20501;-62
2021/08/16 00:28:06;;;;;;;6.28;4.60;;;23.90;71.40;;;;;;4207684;28;20117;-62
2021/08/16 00:30:29;;;;;;;6.00;4.78;;;23.90;71.40;;;;;;4207572;28;20051;-62
2021/08/16 00:32:52;;;;;;;5.05;4.63;;;23.90;71.70;;;;;;4209076;28;20054;-62
2021/08/16 00:35:15;;;;;;;5.10;4.32;;;23.90;71.70;;;;;;4210351;28;20078;-63
2021/08/16 00:37:37;;;;;;;5.75;3.65;;;23.90;71.60;;;;;;4211058;28;20413;-64
2021/08/16 00:39:59;;;;;;;3.03;2.67;;;23.90;71.50;;;;;;4211227;28;20505;-64
2021/08/16 00:42:22;;;;;;;2.47;2.28;;;23.80;71.50;;;;;;4211078;28;20106;-64
2021/08/16 00:44:44;;;;;;;2.38;2.20;;;23.80;71.40;;;;;;4210977;28;20071;-64
2021/08/16 00:47:06;;;;;;;2.70;2.13;;;23.80;71.40;;;;;;4210804;28;20047;-63
2021/08/16 00:49:30;;;;;;;1.95;1.80;;;23.80;71.30;;;;;;4210847;28;20177;-64
2021/08/16 00:51:52;;;;;;;2.05;1.95;;;23.80;71.20;;;;;;4211165;28;20051;-64
2021/08/16 00:54:14;;;;;;;2.25;1.90;;;23.80;71.30;;;;;;4210676;28;20105;-63
2021/08/16 00:56:38;;;;;;;2.05;1.77;;;23.80;71.30;;;;;;4210243;28;20046;-63
2021/08/16 00:59:01;;;;;;;2.22;2.05;;;23.80;71.20;;;;;;4210838;28;20131;-64
2021/08/16 01:01:23;;;;;;;3.67;2.10;;;23.80;71.20;;;;;;4210564;28;20052;-63
2021/08/16 01:03:45;;;;;;;1.85;1.73;;;23.80;71.30;;;;;;4210400;28;20040;-63
2021/08/16 01:06:09;;;;;;;2.65;2.00;;;23.80;71.30;;;;;;4210798;28;20155;-62
2021/08/16 01:08:31;;;;;;;3.45;1.98;;;23.80;71.40;;;;;;4210361;28;20508;-64
2021/08/16 01:10:54;;;;;;;2.40;2.20;;;23.80;71.50;;;;;;4210726;28;20056;-64
2021/08/16 01:13:16;;;;;;;3.17;2.35;;;23.80;71.50;;;;;;4210387;28;20048;-64
2021/08/16 01:15:39;;;;;;;4.03;2.40;;;23.80;71.70;;;;;;4210399;28;20105;-64
2021/08/16 01:18:01;;;;;;;4.40;1.85;;;23.80;71.80;;;;;;4197911;28;20486;-64
2021/08/16 01:20:25;;;;;;;2.95;2.17;;;23.80;71.80;;;;;;4210253;28;20058;-64
2021/08/16 01:22:49;;;;;;;5.57;2.40;;;23.70;71.90;;;;;;4210509;28;20101;-64
2021/08/16 01:25:11;;;;;;;2.90;2.30;;;23.80;72.00;;;;;;4210688;28;20048;-64
2021/08/16 01:27:35;;;;;;;6.40;2.65;;;23.70;71.90;;;;;;4210571;28;20047;-64
2021/08/16 01:29:58;;;;;;;4.07;2.28;;;23.70;72.00;;;;;;4210216;28;20055;-64
2021/08/16 01:32:20;;;;;;;3.80;2.13;;;23.80;72.10;;;;;;4210082;28;20052;-64
2021/08/16 01:34:43;;;;;;;2.67;2.47;;;23.70;72.10;;;;;;4193637;28;20201;-64
2021/08/16 01:37:05;;;;;;;3.13;2.28;;;23.70;72.20;;;;;;4193420;28;20410;-65
2021/08/16 01:39:27;;;;;;;5.88;2.55;;;23.70;72.20;;;;;;4193600;28;20426;-64
2021/08/16 01:41:49;;;;;;;3.30;2.35;;;23.70;72.30;;;;;;4193469;28;20055;-64
2021/08/16 01:44:14;;;;;;;5.10;2.38;;;23.70;72.30;;;;;;4192137;28;20041;-65
2021/08/16 01:46:36;;;;;;;3.10;2.60;;;23.70;72.40;;;;;;4200460;28;20040;-63
2021/08/16 01:48:59;;;;;;;3.88;2.30;;;23.70;72.40;;;;;;4209740;28;20139;-65
2021/08/16 01:51:20;;;;;;;4.50;3.10;;;23.70;72.50;;;;;;4210128;28;20048;-64
2021/08/16 01:53:43;;;;;;;5.50;2.90;;;23.70;72.50;;;;;;4209456;28;20052;-63
2021/08/16 01:56:05;;;;;;;4.18;2.55;;;23.70;73.50;;;;;;4209865;28;20152;-64
2021/08/16 01:58:27;;;;;;;5.50;2.92;;;23.70;72.80;;;;;;4209724;28;20124;-64
2021/08/16 02:00:53;;;;;;;4.30;3.05;;;23.60;72.80;;;;;;4209550;28;20054;-63
2021/08/16 02:03:16;;;;;;;5.30;3.33;;;23.60;72.80;;;;;;4209504;28;20144;-65
2021/08/16 02:05:37;;;;;;;7.15;3.25;;;23.70;73.00;;;;;;4209574;28;20502;-65
2021/08/16 02:08:00;;;;;;;8.57;4.20;;;23.70;73.10;;;;;;4209809;28;20047;-65
2021/08/16 02:10:23;;;;;;;5.93;3.45;;;23.60;73.00;;;;;;4209541;28;20072;-63
2021/08/16 02:12:45;;;;;;;6.40;3.60;;;23.70;73.10;;;;;;4209476;28;20040;-63
2021/08/16 02:15:09;;;;;;;7.53;3.42;;;23.60;73.10;;;;;;4209416;28;20060;-64
2021/08/16 02:17:33;;;;;;;8.25;3.78;;;23.60;73.10;;;;;;4209643;28;20130;-64
2021/08/16 02:19:55;;;;;;;6.78;3.38;;;23.60;73.20;;;;;;4209551;28;20051;-64
2021/08/16 02:22:17;;;;;;;8.38;3.75;;;23.60;73.30;;;;;;4209722;28;20068;-63
2021/08/16 02:24:39;;;;;;;5.90;3.08;;;23.60;73.40;;;;;;4196609;28;20052;-64
2021/08/16 02:27:01;;;;;;;10.77;3.50;;;23.60;73.40;;;;;;4209177;28;20143;-64
2021/08/16 02:29:23;;;;;;;11.15;3.72;;;23.60;73.40;;;;;;4209266;28;20051;-64
2021/08/16 02:31:46;;;;;;;7.63;3.08;;;23.60;73.50;;;;;;4209126;28;20056;-64
2021/08/16 02:34:09;;;;;;;6.65;2.80;;;23.60;73.60;;;;;;4209080;28;20047;-64
2021/08/16 02:36:31;;;;;;;10.82;3.60;;;23.60;73.60;;;;;;4209310;28;20607;-65
2021/08/16 02:38:53;;;;;;;7.45;3.63;;;23.60;73.70;;;;;;4209497;28;20501;-64
2021/08/16 02:41:16;;;;;;;9.13;3.70;;;23.60;73.80;;;;;;4208724;28;20101;-64
2021/08/16 02:43:37;;;;;;;7.15;3.28;;;23.60;74.70;;;;;;4209236;28;20478;-64
2021/08/16 02:46:00;;;;;;;11.00;3.35;;;23.60;73.80;;;;;;4208979;28;20137;-64
2021/08/16 02:48:21;;;;;;;8.68;3.80;;;23.60;73.90;;;;;;4209136;28;20145;-64
2021/08/16 02:50:45;;;;;;;13.07;3.72;;;23.60;74.40;;;;;;4208824;28;20058;-64
2021/08/16 02:53:07;;;;;;;8.27;3.88;;;23.60;73.90;;;;;;4208916;28;20052;-63
2021/08/16 02:55:29;;;;;;;6.75;2.97;;;23.60;73.90;;;;;;4208568;28;20066;-63
2021/08/16 02:57:51;;;;;;;8.68;3.25;;;23.60;74.00;;;;;;4209016;28;20097;-63
2021/08/16 03:00:14;;;;;;;10.18;4.53;;;23.60;74.00;;;;;;4208795;28;20543;-63
2021/08/16 03:02:36;;;;;;;8.45;3.42;;;23.60;74.10;;;;;;4208686;28;20413;-63
2021/08/16 03:04:59;;;;;;;5.53;3.42;;;23.60;74.10;;;;;;4208682;28;20402;-63
2021/08/16 03:07:22;;;;;;;8.23;3.72;;;23.60;74.20;;;;;;4208539;28;20521;-63
2021/08/16 03:09:44;;;;;;;6.13;3.25;;;23.50;74.20;;;;;;4207338;28;20044;-64
2021/08/16 03:12:06;;;;;;;9.98;3.78;;;23.50;74.20;;;;;;4195055;28;20547;-63
2021/08/16 03:14:29;;;;;;;8.50;4.00;;;23.50;74.30;;;;;;4208360;28;20417;-62
2021/08/16 03:16:51;;;;;;;7.50;3.53;;;23.50;74.30;;;;;;4208429;28;20391;-64
2021/08/16 03:19:15;;;;;;;9.05;3.88;;;23.50;74.30;;;;;;4208693;28;20047;-63
2021/08/16 03:21:37;;;;;;;7.22;3.83;;;23.50;74.40;;;;;;4208217;28;20044;-63
2021/08/16 03:24:01;;;;;;;8.15;3.83;;;23.50;74.40;;;;;;4208402;28;20474;-63
2021/08/16 03:26:23;;;;;;;8.20;3.72;;;23.50;74.40;;;;;;4208401;28;20131;-63
2021/08/16 03:28:45;;;;;;;6.90;3.25;;;23.50;74.40;;;;;;4208473;28;20089;-62
2021/08/16 03:31:07;;;;;;;7.22;3.78;;;23.50;74.50;;;;;;4208038;28;20501;-63
2021/08/16 03:33:29;;;;;;;6.53;3.05;;;23.50;74.60;;;;;;4208255;28;20043;-63
2021/08/16 03:35:51;;;;;;;5.88;3.08;;;23.50;74.60;;;;;;4208404;28;20040;-63
2021/08/16 03:38:14;;;;;;;8.00;3.78;;;23.50;74.60;;;;;;4208557;28;20489;-63
2021/08/16 03:40:37;;;;;;;8.55;3.50;;;23.50;74.70;;;;;;4208129;28;20048;-62
2021/08/16 03:42:59;;;;;;;7.28;3.17;;;23.50;74.80;;;;;;4208030;28;20035;-63
2021/08/16 03:45:21;;;;;;;7.85;3.40;;;23.50;74.80;;;;;;4207927;28;20054;-64
2021/08/16 03:47:44;;;;;;;5.75;3.63;;;23.50;74.80;;;;;;4208288;28;20082;-63
2021/08/16 03:50:07;;;;;;;6.60;3.33;;;23.50;74.80;;;;;;4207706;28;20054;-63
2021/08/16 03:52:29;;;;;;;8.88;3.72;;;23.50;74.90;;;;;;4206832;28;20052;-63
2021/08/16 03:54:51;;;;;;;9.23;3.58;;;23.50;74.90;;;;;;4208252;28;20066;-62
2021/08/16 03:57:14;;;;;;;6.28;3.28;;;23.50;74.90;;;;;;4207962;28;20048;-64
2021/08/16 03:59:36;;;;;;;7.15;4.13;;;23.50;74.90;;;;;;4208027;28;20132;-64
2021/08/16 04:01:59;;;;;;;10.43;3.75;;;23.50;74.90;;;;;;4207345;28;20063;-65
2021/08/16 04:04:22;;;;;;;9.60;3.58;;;23.50;75.00;;;;;;4208120;28;20044;-62
2021/08/16 04:06:44;;;;;;;8.38;3.40;;;23.50;75.00;;;;;;4207327;28;20056;-63
2021/08/16 04:09:07;;;;;;;4.70;2.97;;;23.50;75.00;;;;;;4207520;28;20075;-63
2021/08/16 04:11:29;;;;;;;9.02;3.78;;;23.50;75.00;;;;;;4207926;28;20116;-63
2021/08/16 04:13:52;;;;;;;6.63;3.13;;;23.40;75.00;;;;;;4208113;28;20043;-63
2021/08/16 04:16:14;;;;;;;8.70;3.92;;;23.40;75.00;;;;;;4207526;28;20474;-63
2021/08/16 04:18:38;;;;;;;7.15;3.20;;;23.40;74.90;;;;;;4207566;28;20490;-63
2021/08/16 04:21:00;;;;;;;4.35;3.10;;;23.40;74.80;;;;;;4207797;28;20052;-63
2021/08/16 04:23:22;;;;;;;7.75;2.83;;;23.40;74.70;;;;;;4207796;28;20059;-63
2021/08/16 04:25:44;;;;;;;5.00;3.55;;;23.40;74.80;;;;;;4207720;28;20421;-63
2021/08/16 04:28:06;;;;;;;4.13;3.38;;;23.40;74.80;;;;;;4207733;28;20063;-63
2021/08/16 04:30:30;;;;;;;7.05;3.65;;;23.40;75.00;;;;;;4206824;28;20058;-62
2021/08/16 04:32:52;;;;;;;6.43;3.80;;;23.40;75.00;;;;;;4207575;28;20055;-63
2021/08/16 04:35:15;;;;;;;4.70;3.35;;;23.40;75.10;;;;;;4207493;28;20048;-62
2021/08/16 04:37:38;;;;;;;3.83;2.55;;;23.40;75.10;;;;;;4207699;28;20086;-62
2021/08/16 04:40:00;;;;;;;3.90;2.88;;;23.40;75.00;;;;;;4207647;28;20097;-62
2021/08/16 04:42:22;;;;;;;6.40;3.22;;;23.40;74.90;;;;;;4207382;28;20159;-62
2021/08/16 04:44:45;;;;;;;7.13;3.38;;;23.40;74.80;;;;;;4207351;28;20075;-63
2021/08/16 04:47:08;;;;;;;9.27;3.90;;;23.40;74.80;;;;;;4207292;28;20055;-63
2021/08/16 04:49:30;;;;;;;4.25;2.70;;;23.40;74.90;;;;;;4207300;28;20043;-63
2021/08/16 04:51:52;;;;;;;5.15;2.83;;;23.40;75.00;;;;;;4207638;28;20055;-63
2021/08/16 04:54:14;;;;;;;2.30;2.10;;;23.30;74.90;;;;;;4207394;28;20052;-63
2021/08/16 04:56:38;;;;;;;3.92;2.20;;;23.40;74.80;;;;;;4207430;28;20052;-64
2021/08/16 04:59:00;;;;;;;2.35;1.73;;;23.40;74.70;;;;;;4207660;28;20047;-64
2021/08/16 05:01:22;;;;;;;4.90;2.28;;;23.40;74.30;;;;;;4206590;28;20759;-64
2021/08/16 05:03:46;;;;;;;2.65;1.85;;;23.40;74.40;;;;;;4206940;28;20054;-63
2021/08/16 05:06:08;;;;;;;3.33;2.00;;;23.40;74.60;;;;;;4207561;28;20581;-62
2021/08/16 05:08:30;;;;;;;2.25;1.88;;;23.40;74.20;;;;;;4207170;28;20056;-63
2021/08/16 05:10:52;;;;;;;1.98;1.77;;;23.40;74.20;;;;;;4207219;28;20052;-63
2021/08/16 05:13:15;;;;;;;1.95;1.77;;;23.40;73.90;;;;;;4207521;28;20066;-63
2021/08/16 05:15:42;;;;;;;4.75;1.92;;;23.40;73.80;;;;;;4207209;28;20051;-62
2021/08/16 05:18:04;;;;;;;2.67;1.67;;;23.40;73.70;;;;;;4207996;28;20079;-63
2021/08/16 05:20:28;;;;;;;1.73;1.48;;;23.40;73.70;;;;;;4210524;28;20075;-63
2021/08/16 05:22:50;;;;;;;2.90;1.80;;;23.30;73.40;;;;;;4210498;28;20117;-63
2021/08/16 05:25:16;;;;;;;3.72;2.08;;;23.40;73.70;;;;;;4210353;28;20462;-64
2021/08/16 05:27:39;;;;;;;2.45;1.75;;;23.30;73.70;;;;;;4193393;28;20127;-63
2021/08/16 05:30:01;;;;;;;5.95;1.83;;;23.40;73.70;;;;;;4194120;28;20144;-62
2021/08/16 05:32:23;;;;;;;3.25;1.67;;;23.40;74.10;;;;;;4204437;28;20040;-64
2021/08/16 05:34:45;;;;;;;5.43;1.65;;;23.40;74.20;;;;;;4209057;28;20047;-64
2021/08/16 05:37:09;;;;;;;2.22;1.75;;;23.40;74.00;;;;;;4208808;28;20075;-64
2021/08/16 05:39:31;;;;;;;4.13;1.65;;;23.40;73.70;;;;;;4208642;28;20052;-64
2021/08/16 05:41:54;;;;;;;3.55;1.70;;;23.30;73.60;;;;;;4209065;28;20240;-64
2021/08/16 05:44:16;;;;;;;3.95;1.73;;;23.30;73.50;;;;;;4209446;28;20059;-65
2021/08/16 05:46:38;;;;;;;2.78;1.73;;;23.30;73.70;;;;;;4209331;28;20056;-66
2021/08/16 05:49:00;;;;;;;3.05;1.75;;;23.30;73.70;;;;;;4210511;28;20062;-66
2021/08/16 05:51:22;;;;;;;2.83;1.50;;;23.40;73.60;;;;;;4209920;28;20433;-65
2021/08/16 05:53:46;;;;;;;2.30;1.90;;;23.30;73.50;;;;;;4209956;28;20143;-65
2021/08/16 05:56:08;;;;;;;1.80;1.70;;;23.30;73.70;;;;;;4209877;28;20048;-66
2021/08/16 05:58:30;;;;;;;4.07;1.70;;;23.30;73.70;;;;;;4197893;28;20052;-65
2021/08/16 06:00:52;;;;;;;2.55;1.55;;;23.30;73.50;;;;;;4199405;28;20135;-66
2021/08/16 06:03:14;;;;;;;4.22;1.77;;;23.30;73.50;;;;;;4208992;28;20052;-64
2021/08/16 06:05:36;;;;;;;3.28;1.75;;;23.30;73.40;;;;;;4209075;28;20486;-63
2021/08/16 06:07:58;;;;;;;8.80;2.30;;;23.30;73.70;;;;;;4199125;28;20086;-62
2021/08/16 06:10:22;;;;;;;2.15;1.48;;;23.30;73.60;;;;;;4209712;28;20459;-61
2021/08/16 06:12:43;;;;;;;2.35;1.73;;;23.30;73.90;;;;;;4209754;28;20135;-61
2021/08/16 06:15:08;;;;;;;1.83;1.30;;;23.30;74.10;;;;;;4209324;28;20122;-62
2021/08/16 06:17:30;;;;;;;2.63;1.58;;;23.40;74.30;;;;;;4209402;28;20060;-61
2021/08/16 06:19:52;;;;;;;2.60;1.75;;;23.30;74.00;;;;;;4209464;28;20036;-61
2021/08/16 06:22:14;;;;;;;2.00;1.60;;;23.30;73.60;;;;;;4209527;28;20040;-62
2021/08/16 06:24:36;;;;;;;3.17;1.80;;;23.30;73.60;;;;;;4199856;28;20048;-60
2021/08/16 06:27:00;;;;;;;1.83;1.33;;;23.30;73.60;;;;;;4204929;28;20059;-62
2021/08/16 06:29:23;;;;;;;1.73;1.58;;;23.30;74.40;;;;;;4192863;28;20491;-62
2021/08/16 06:31:45;;;;;;;1.60;1.50;;;23.30;73.80;;;;;;4208130;28;20048;-62
2021/08/16 06:34:08;;;;;;;1.42;1.30;;;23.30;73.90;;;;;;4209262;28;20052;-63
2021/08/16 06:36:30;;;;;;;5.90;1.70;;;23.30;74.40;;;;;;4209208;28;20052;-60
2021/08/16 06:38:52;;;;;;;2.05;1.45;;;23.30;75.00;;;;;;4207841;28;20444;-61
2021/08/16 06:41:16;;;;;;;2.00;1.80;;;23.30;74.90;;;;;;4209128;28;20052;-61
2021/08/16 06:43:39;;;;;;;1.75;1.65;;;23.30;74.60;;;;;;4208543;28;20043;-61
2021/08/16 06:46:01;;;;;;;2.10;1.55;;;23.30;74.30;;;;;;4209335;28;20135;-60
2021/08/16 06:48:23;;;;;;;2.35;1.40;;;23.30;74.30;;;;;;4209035;28;20457;-61
2021/08/16 06:50:46;;;;;;;2.47;1.52;;;23.30;74.40;;;;;;4209218;28;20517;-60
2021/08/16 06:53:11;;;;;;;2.72;1.58;;;23.30;74.30;;;;;;4208869;28;20432;-60
2021/08/16 06:55:33;;;;;;;3.45;1.42;;;23.30;74.00;;;;;;4209130;28;20048;-61
2021/08/16 06:57:55;;;;;;;1.73;1.52;;;23.30;74.10;;;;;;4208922;28;20040;-61
2021/08/16 07:00:18;;;;;;;2.08;1.60;;;23.20;74.20;;;;;;4205989;28;20055;-60
2021/08/16 07:02:41;;;;;;;1.55;1.40;;;23.30;74.10;;;;;;4191554;28;20047;-62
2021/08/16 07:05:06;;;;;;;2.35;1.20;;;23.30;74.20;;;;;;4192095;28;20059;-61
2021/08/16 07:07:28;;;;;;;1.80;1.70;;;23.20;74.10;;;;;;4202229;28;20067;-60
2021/08/16 07:09:50;;;;;;;1.38;1.20;;;23.20;74.20;;;;;;4192155;28;20052;-61
2021/08/16 07:12:12;;;;;;;1.73;1.50;;;23.20;74.30;;;;;;4195517;28;20040;-61
2021/08/16 07:14:34;;;;;;;1.60;1.45;;;23.20;74.40;;;;;;4208834;28;20101;-61
2021/08/16 07:16:58;;;;;;;1.83;1.38;;;23.20;74.50;;;;;;4208556;28;20048;-61
2021/08/16 07:19:20;;;;;;;1.08;1.00;;;23.20;74.40;;;;;;4208775;28;20113;-61
2021/08/16 07:21:45;;;;;;;1.42;1.30;;;23.20;74.40;;;;;;4208683;28;20513;-61
2021/08/16 07:24:07;;;;;;;1.17;1.00;;;23.20;74.40;;;;;;4208304;28;20051;-61
2021/08/16 07:26:29;;;;;;;1.50;1.23;;;23.20;74.40;;;;;;4208630;28;20486;-61
2021/08/16 07:28:52;;;;;;;1.23;1.13;;;23.20;74.40;;;;;;4208639;28;20044;-61
2021/08/16 07:31:14;;;;;;;3.13;1.20;;;23.20;74.30;;;;;;4208360;28;20050;-60
2021/08/16 07:33:38;;;;;;;1.17;1.08;;;23.20;74.40;;;;;;4208759;28;20480;-62
2021/08/16 07:36:00;;;;;;;2.28;1.17;;;23.20;74.40;;;;;;4205415;28;20044;-61
2021/08/16 07:38:22;;;;;;;1.55;1.45;;;23.20;74.20;;;;;;4193250;28;20534;-61
2021/08/16 07:40:45;;;;;;;2.20;1.13;;;23.10;74.20;;;;;;4208200;28;20155;-61
2021/08/16 07:43:07;;;;;;;1.70;1.10;;;23.10;74.30;;;;;;4208144;28;20429;-61
2021/08/16 07:45:29;;;;;;;3.03;1.50;;;23.20;74.30;;;;;;4207856;28;20051;-60
2021/08/16 07:47:52;;;;;;;1.23;0.95;;;23.20;74.10;;;;;;4208545;28;20477;-60
2021/08/16 07:50:16;;;;;;;2.33;1.20;;;23.20;74.30;;;;;;4208203;28;20490;-61
2021/08/16 07:52:39;;;;;;;1.42;0.90;;;23.20;74.20;;;;;;4208081;28;20047;-61
2021/08/16 07:55:00;;;;;;;1.08;1.05;;;23.20;74.20;;;;;;4200467;28;20494;-60
2021/08/16 07:57:23;;;;;;;3.00;1.23;;;23.20;74.20;;;;;;4199091;28;20056;-60
2021/08/16 07:59:45;;;;;;;1.10;0.73;;;23.10;73.90;;;;;;4207249;28;20405;-61
2021/08/16 08:02:07;;;;;;;2.70;1.02;;;23.10;73.90;;;;;;4207903;28;20056;-60
2021/08/16 08:04:29;;;;;;;1.00;0.82;;;23.20;73.90;;;;;;4200630;28;20102;-60
2021/08/16 08:06:53;;;;;;;1.90;1.23;;;23.10;73.90;;;;;;4205710;28;20044;-61
2021/08/16 08:09:14;;;;;;;1.38;1.25;;;23.20;74.00;;;;;;4208065;28;20044;-61
2021/08/16 08:11:37;;;;;;;1.30;0.88;;;23.10;73.40;;;;;;4207818;28;20051;-60
2021/08/16 08:13:59;;;;;;;2.17;1.10;;;23.20;73.50;;;;;;4208278;28;20123;-60
2021/08/16 08:16:21;;;;;;;1.88;1.20;;;23.20;73.30;;;;;;4207735;28;20055;-60
2021/08/16 08:18:43;;;;;;;2.17;1.38;;;23.20;72.80;;;;;;4207692;28;20048;-60
2021/08/16 08:21:06;;;;;;;3.75;1.63;;;23.20;72.70;;;;;;4207619;28;20071;-60
2021/08/16 08:23:29;;;;;;;3.45;1.00;;;23.20;72.70;;;;;;4207776;28;20429;-60
2021/08/16 08:25:51;;;;;;;4.50;1.10;;;23.20;71.80;;;;;;4207744;28;20113;-60
2021/08/16 08:28:15;;;;;;;2.40;1.30;;;23.20;72.10;;;;;;4207958;28;20051;-60
2021/08/16 08:30:37;;;;;;;3.58;1.35;;;23.20;71.40;;;;;;4207579;28;20469;-60
2021/08/16 08:32:59;;;;;;;1.92;1.10;;;23.20;70.90;;;;;;4196412;28;20467;-60
2021/08/16 08:35:23;;;;;;;1.50;1.10;;;23.20;71.00;;;;;;4207819;28;20056;-60
2021/08/16 08:37:45;;;;;;;3.50;1.40;;;23.20;70.90;;;;;;4206154;28;20051;-60
2021/08/16 08:40:09;;;;;;;2.22;1.38;;;23.20;70.40;;;;;;4207763;28;20490;-60
2021/08/16 08:42:33;;;;;;;2.78;1.50;;;23.20;69.10;;;;;;4204620;28;20498;-60
2021/08/16 08:44:56;;;;;;;2.28;1.35;;;23.20;69.10;;;;;;4207760;28;20129;-59
2021/08/16 08:47:18;;;;;;;4.28;1.63;;;23.20;70.60;;;;;;4207646;28;20052;-60
2021/08/16 08:49:42;;;;;;;2.75;1.25;;;23.20;70.30;;;;;;4194175;28;20125;-59
2021/08/16 08:52:05;;;;;;;4.90;1.48;;;23.20;69.70;;;;;;4192737;28;20877;-61
2021/08/16 08:54:28;;;;;;;1.83;1.60;;;23.20;69.80;;;;;;4210171;28;20519;-60
2021/08/16 08:57:19;;;;;;;2.60;1.58;;;23.20;70.20;;;;;;4210768;28;20501;-60
2021/08/16 08:59:41;;;;;;;1.85;1.58;;;23.20;70.00;;;;;;4210649;28;20101;-60
2021/08/16 09:02:07;;;;;;;2.72;1.65;;;23.20;70.50;;;;;;4210640;28;20123;-60
2021/08/16 09:04:31;;;;;;;3.78;1.35;;;23.20;69.50;;;;;;4210796;28;20043;-60
2021/08/16 09:06:53;;;;;;;4.50;1.60;;;23.20;70.10;;;;;;4210758;28;20412;-60
2021/08/16 09:09:16;;;;;;;3.50;1.40;;;23.20;69.90;;;;;;4210749;28;20078;-60
2021/08/16 09:11:42;;;;;;;7.95;2.10;;;23.20;70.20;;;;;;4210488;28;20043;-60
2021/08/16 09:14:07;;;;;;;2.92;1.55;;;23.20;68.00;;;;;;4210633;28;20409;-59
2021/08/16 09:16:31;;;;;;;2.60;1.60;;;23.20;68.90;;;;;;4210414;28;20059;-61
2021/08/16 09:18:54;;;;;;;3.72;1.75;;;23.20;68.90;;;;;;4210458;28;20036;-60
2021/08/16 09:21:25;;;;;;;2.97;1.50;;;23.20;68.50;;;;;;4210483;28;20047;-60
2021/08/16 09:23:55;;;;;;;3.38;1.50;;;23.20;67.40;;;;;;4210330;28;20401;-61
2021/08/16 09:26:23;;;;;;;3.42;1.58;;;23.20;67.50;;;;;;4209372;28;20070;-60
2021/08/16 09:29:11;;;;;;;1.83;1.48;;;23.20;67.10;;;;;;4210139;28;20044;-60
2021/08/16 09:31:33;;;;;;;4.28;1.80;;;23.10;67.30;;;;;;4210289;28;20102;-60
2021/08/16 09:34:00;;;;;;;5.40;1.85;;;23.20;67.60;;;;;;4210445;28;20048;-59
2021/08/16 09:36:33;;;;;;;4.40;1.23;;;23.20;67.20;;;;;;4209670;28;20444;-61
2021/08/16 09:38:56;;;;;;;1.77;1.10;;;23.20;67.20;;;;;;4209900;28;20051;-61
2021/08/16 09:41:22;;;;;;;1.77;1.00;;;23.20;66.80;;;;;;4209964;28;20060;-61
2021/08/16 09:43:45;;;;;;;4.28;1.20;;;23.10;66.90;;;;;;4209914;28;20052;-61
2021/08/16 09:46:14;;;;;;;1.75;0.77;;;23.10;66.80;;;;;;4210178;28;20068;-61
2021/08/16 09:48:37;;;;;;;3.50;1.45;;;23.10;66.00;;;;;;4210199;28;20093;-60
2021/08/16 09:51:00;;;;;;;2.35;0.93;;;23.10;66.90;;;;;;4209966;28;20048;-60
2021/08/16 09:53:25;;;;;;;2.25;1.20;;;23.10;67.30;;;;;;4209979;28;20497;-60
2021/08/16 09:55:49;;;;;;;1.85;1.20;;;23.10;67.90;;;;;;4210254;28;20123;-60
2021/08/16 09:58:14;;;;;;;1.52;0.82;;;23.00;68.30;;;;;;4209359;28;20505;-60
2021/08/16 10:00:38;;;;;;;1.80;1.13;;;23.00;67.90;;;;;;4209770;28;20048;-60
2021/08/16 10:03:01;;;;;;;3.75;1.48;;;23.00;67.90;;;;;;4209872;28;20048;-60
2021/08/16 10:05:23;;;;;;;3.03;1.40;;;23.00;67.50;;;;;;4208641;28;20048;-61
2021/08/16 10:07:48;;;;;;;3.28;0.90;;;23.00;67.50;;;;;;4209291;28;20512;-60
2021/08/16 10:10:11;;;;;;;2.47;1.02;;;23.00;67.30;;;;;;4209142;28;20409;-61
2021/08/16 10:12:33;;;;;;;1.40;0.82;;;23.00;67.20;;;;;;4209567;28;20148;-61
2021/08/16 10:14:57;;;;;;;0.77;0.57;;;23.00;67.90;;;;;;4209275;28;20044;-61
2021/08/16 10:17:22;;;;;;;1.08;0.80;;;23.00;67.90;;;;;;4204935;28;20101;-59
2021/08/16 10:19:46;;;;;;;0.95;0.60;;;23.00;68.70;;;;;;4193037;28;20048;-62
2021/08/16 10:22:09;;;;;;;2.15;0.90;;;23.00;66.80;;;;;;4197385;28;20079;-62
2021/08/16 10:24:31;;;;;;;2.55;0.80;;;23.00;67.20;;;;;;4209360;28;20047;-62
2021/08/16 10:26:58;;;;;;;0.90;0.63;;;23.00;67.20;;;;;;4209122;28;20055;-61
2021/08/16 10:29:22;;;;;;;2.60;1.20;;;23.00;67.50;;;;;;4209651;28;20067;-62
2021/08/16 10:31:44;;;;;;;1.48;1.10;;;23.00;66.80;;;;;;4209460;28;20055;-63
2021/08/16 10:34:06;;;;;;;2.35;1.45;;;23.00;66.80;;;;;;4209178;28;20048;-62
2021/08/16 10:36:30;;;;;;;3.42;1.40;;;23.00;66.90;;;;;;4209013;28;20081;-62
2021/08/16 10:38:54;;;;;;;6.05;1.60;;;23.00;66.70;;;;;;4209289;28;20500;-62
2021/08/16 10:41:25;;;;;;;5.97;1.83;;;23.10;66.60;;;;;;4209043;28;20040;-62
2021/08/16 10:43:47;;;;;;;2.67;1.38;;;23.10;67.50;;;;;;4208863;28;20751;-62
2021/08/16 10:46:21;;;;;;;4.28;1.90;;;23.00;66.80;;;;;;4209279;28;20128;-62
2021/08/16 10:48:43;;;;;;;4.00;1.65;;;23.10;66.30;;;;;;4209050;28;20058;-63
2021/08/16 10:51:07;;;;;;;4.53;1.77;;;23.00;66.10;;;;;;4209177;28;20043;-62
2021/08/16 10:53:31;;;;;;;3.40;1.50;;;23.00;66.30;;;;;;4205901;28;20441;-62
2021/08/16 10:55:54;;;;;;;3.38;1.85;;;23.00;66.50;;;;;;4208308;28;20113;-62
2021/08/16 10:58:16;;;;;;;5.28;2.05;;;23.00;65.40;;;;;;4208822;28;20512;-62
2021/08/16 11:00:39;;;;;;;3.15;1.58;;;23.00;65.80;;;;;;4208779;28;20497;-61
2021/08/16 11:03:01;;;;;;;5.50;2.40;;;23.00;65.40;;;;;;4208613;28;20036;-61
2021/08/16 11:05:30;;;;;;;3.70;2.15;;;23.00;66.00;;;;;;4208734;28;20044;-61
2021/08/16 11:07:53;;;;;;;4.32;1.83;;;23.00;63.70;;;;;;4208980;28;20253;-61
2021/08/16 11:10:17;;;;;;;2.90;1.35;;;23.10;64.60;;;;;;4208775;28;20131;-61
2021/08/16 11:12:42;;;;;;;2.85;1.67;;;23.10;62.30;;;;;;4208770;28;20048;-62
2021/08/16 11:15:06;;;;;;;2.97;1.35;;;23.00;59.90;;;;;;4208822;28;20056;-61
2021/08/16 11:17:28;;;;;;;4.60;1.67;;;23.00;61.70;;;;;;4208528;28;20056;-62
2021/08/16 11:19:50;;;;;;;4.40;1.65;;;23.00;62.60;;;;;;4208849;28;22231;-61
2021/08/16 11:22:13;;;;;;;3.22;1.10;;;23.10;59.20;;;;;;4208743;28;20051;-61
2021/08/16 11:24:38;;;;;;;4.88;1.92;;;23.10;60.20;;;;;;4208717;28;20056;-61
2021/08/16 11:27:02;;;;;;;5.47;1.98;;;23.10;58.60;;;;;;4208936;28;20781;-61
2021/08/16 11:29:25;;;;;;;3.92;1.60;;;23.10;59.60;;;;;;4208725;28;20052;-61
2021/08/16 11:31:51;;;;;;;4.35;1.73;;;23.20;60.40;;;;;;4208591;28;20048;-61
2021/08/16 11:34:13;;;;;;;3.50;1.45;;;23.10;60.70;;;;;;4208163;28;20054;-61
2021/08/16 11:36:37;;;;;;;4.88;1.67;;;23.20;60.30;;;;;;4208166;28;20150;-61
2021/08/16 11:38:59;;;;;;;3.13;1.50;;;23.20;60.70;;;;;;4208601;28;20480;-60
2021/08/16 11:41:22;;;;;;;4.50;1.83;;;23.10;60.50;;;;;;4208411;28;20063;-61
2021/08/16 11:43:56;;;;;;;7.20;2.00;;;23.20;59.70;;;;;;4208246;28;20085;-61
2021/08/16 11:46:20;;;;;;;2.95;1.75;;;23.10;61.30;;;;;;4208434;28;20055;-61
2021/08/16 11:48:49;;;;;;;5.38;1.58;;;23.10;57.20;;;;;;4207942;28;20047;-60
2021/08/16 11:51:12;;;;;;;5.97;1.90;;;23.10;60.00;;;;;;4207867;28;20505;-61
2021/08/16 11:53:42;;;;;;;3.65;1.50;;;23.10;58.90;;;;;;4208181;28;20131;-61
2021/08/16 11:56:05;;;;;;;5.03;1.63;;;23.10;59.40;;;;;;4207948;28;20073;-61
2021/08/16 11:58:35;;;;;;;4.28;1.60;;;23.10;60.40;;;;;;4208037;28;20052;-61
2021/08/16 12:01:01;;;;;;;6.68;1.92;;;23.10;60.80;;;;;;4208118;28;20532;-61
2021/08/16 12:03:23;;;;;;;3.05;2.10;;;23.10;58.40;;;;;;4207481;28;20082;-61
2021/08/16 12:05:45;;;;;;;5.00;1.85;;;23.10;57.80;;;;;;4208057;28;20043;-61
2021/08/16 12:08:12;;;;;;;6.53;1.98;;;23.10;57.40;;;;;;4207867;28;20048;-62
2021/08/16 12:10:43;;;;;;;6.32;1.85;;;23.10;59.50;;;;;;4207572;28;20565;-61
2021/08/16 12:13:05;;;;;;;4.15;1.48;;;23.20;59.30;;;;;;4207883;28;20055;-61
2021/08/16 12:15:28;;;;;;;5.22;1.77;;;23.20;61.00;;;;;;4207851;28;20047;-62
2021/08/16 12:17:53;;;;;;;6.53;2.05;;;23.10;60.00;;;;;;4207721;28;20413;-61
2021/08/16 12:20:16;;;;;;;3.45;1.50;;;23.10;59.10;;;;;;4207741;28;20051;-62
2021/08/16 12:22:48;;;;;;;4.60;1.52;;;23.20;58.90;;;;;;4207846;28;20059;-62
2021/08/16 12:25:11;;;;;;;4.70;1.40;;;23.20;55.00;;;;;;4207487;28;20054;-61